Time;durP1;ratioP1;P1;durP2;ratioP2;P2;SDS_P1;SDS_P2;PMS_P1;PMS_P2;Temp;Humidity;BMP_temperature;BMP_pressure;BME280_temperature;BME280_humidity;BME280_pressure;Samples;Min_cycle;Max_cycle;Signal;HPM_P1;HPM_P2
2023/09/11 00:00:04;;;;;;;132.13;48.80;;;17.00;93.70;;;;;;5059556;28;20089;-70
2023/09/11 00:02:31;;;;;;;120.57;44.42;;;17.00;93.90;;;;;;5062398;28;20141;-70
2023/09/11 00:04:58;;;;;;;125.38;46.00;;;17.00;93.70;;;;;;5063244;28;20061;-70
2023/09/11 00:07:25;;;;;;;119.40;43.42;;;17.00;93.60;;;;;;5060230;28;20040;-70
2023/09/11 00:09:52;;;;;;;121.38;42.47;;;17.00;93.50;;;;;;5041912;28;20036;-70
2023/09/11 00:12:19;;;;;;;106.32;39.78;;;16.90;93.50;;;;;;5048226;28;20044;-70
2023/09/11 00:14:45;;;;;;;106.70;40.92;;;16.90;93.30;;;;;;5039097;28;20041;-70
2023/09/11 00:17:12;;;;;;;104.13;39.67;;;16.90;93.60;;;;;;5039623;28;20119;-70
2023/09/11 00:19:39;;;;;;;116.63;40.67;;;16.80;93.70;;;;;;5053413;28;20139;-70
2023/09/11 00:22:06;;;;;;;112.93;40.50;;;16.80;93.70;;;;;;5059507;28;20109;-70
2023/09/11 00:24:33;;;;;;;105.30;40.50;;;16.80;94.30;;;;;;5056999;28;20200;-70
2023/09/11 00:27:00;;;;;;;123.80;44.35;;;16.80;93.80;;;;;;5038648;28;20083;-70
2023/09/11 00:29:27;;;;;;;129.63;46.08;;;16.80;94.40;;;;;;5039436;28;20086;-70
2023/09/11 00:31:54;;;;;;;128.20;44.42;;;16.80;94.60;;;;;;5030508;28;20055;-70
2023/09/11 00:34:21;;;;;;;113.00;41.90;;;16.80;94.90;;;;;;5062510;28;20073;-70
2023/09/11 00:36:48;;;;;;;117.55;42.67;;;16.70;94.30;;;;;;5036269;28;20081;-70
2023/09/11 00:39:15;;;;;;;121.97;43.30;;;16.70;94.20;;;;;;5058026;28;20434;-70
2023/09/11 00:41:42;;;;;;;107.65;40.95;;;16.70;94.10;;;;;;5061556;28;20075;-70
2023/09/11 00:44:10;;;;;;;112.68;41.88;;;16.70;94.20;;;;;;5045728;28;20040;-70
2023/09/11 00:46:37;;;;;;;121.82;42.25;;;16.70;94.30;;;;;;5051423;28;20103;-70
2023/09/11 00:49:04;;;;;;;109.88;42.78;;;16.70;94.70;;;;;;5058482;28;20055;-71
2023/09/11 00:51:31;;;;;;;111.93;41.60;;;16.70;94.70;;;;;;5039247;28;20088;-70
2023/09/11 00:53:58;;;;;;;117.15;42.40;;;16.70;95.30;;;;;;5059504;28;20161;-70
2023/09/11 00:56:26;;;;;;;109.15;40.88;;;16.70;94.70;;;;;;5058140;28;20079;-70
2023/09/11 00:58:53;;;;;;;111.30;39.78;;;16.70;94.60;;;;;;5054415;28;20759;-70
2023/09/11 01:01:22;;;;;;;111.95;42.13;;;16.70;94.20;;;;;;5057330;28;20049;-70
2023/09/11 01:03:50;;;;;;;111.97;40.45;;;16.60;94.40;;;;;;5052978;28;20052;-70
2023/09/11 01:10:06;;;;;;;101.60;37.63;;;16.50;94.40;;;;;;5064739;22;20085;-69
2023/09/11 01:12:37;;;;;;;107.07;40.25;;;16.40;94.90;;;;;;5063697;28;20044;-70
2023/09/11 01:15:06;;;;;;;106.38;41.22;;;16.40;95.10;;;;;;5063848;28;20055;-70
2023/09/11 01:17:42;;;;;;;112.50;39.72;;;16.30;95.10;;;;;;5046754;28;20122;-69
2023/09/11 01:20:12;;;;;;;102.47;38.60;;;16.30;95.30;;;;;;5045727;28;20088;-70
2023/09/11 01:22:50;;;;;;;110.13;40.83;;;16.30;95.70;;;;;;5059640;28;20210;-70
2023/09/11 01:25:47;;;;;;;108.97;39.55;;;16.30;95.70;;;;;;5063939;28;20045;-70
2023/09/11 01:28:29;;;;;;;117.13;39.95;;;16.20;96.10;;;;;;5047028;28;20156;-70
2023/09/11 01:30:59;;;;;;;100.82;39.78;;;16.20;96.50;;;;;;5036960;28;20055;-70
2023/09/11 01:33:26;;;;;;;109.93;38.65;;;16.20;96.10;;;;;;5061808;28;20170;-70
2023/09/11 01:35:52;;;;;;;106.20;40.08;;;16.20;96.00;;;;;;5055086;28;20046;-70
2023/09/11 01:38:19;;;;;;;114.57;42.50;;;16.20;96.10;;;;;;5060569;28;20139;-70
2023/09/11 01:40:52;;;;;;;115.60;43.15;;;16.20;95.90;;;;;;5046258;28;20417;-70
2023/09/11 01:43:21;;;;;;;108.57;41.33;;;16.20;96.00;;;;;;5045937;28;20049;-70
2023/09/11 01:45:48;;;;;;;112.75;41.50;;;16.20;96.30;;;;;;5058926;28;20048;-70
2023/09/11 01:48:16;;;;;;;115.43;41.22;;;16.20;96.40;;;;;;5039632;28;20087;-70
2023/09/11 01:50:44;;;;;;;114.65;40.42;;;16.20;96.00;;;;;;5045900;28;20454;-70
2023/09/11 01:53:11;;;;;;;108.93;39.90;;;16.20;96.60;;;;;;5046761;28;20079;-70
2023/09/11 01:55:39;;;;;;;115.60;42.38;;;16.20;95.90;;;;;;5045464;28;20161;-70
2023/09/11 01:58:05;;;;;;;105.55;39.05;;;16.10;95.90;;;;;;5062010;28;21011;-70
2023/09/11 02:00:32;;;;;;;110.95;40.28;;;16.10;96.20;;;;;;5045442;28;20117;-70
2023/09/11 02:02:59;;;;;;;112.80;41.60;;;16.10;96.00;;;;;;5064160;28;20074;-70
2023/09/11 02:05:26;;;;;;;97.30;38.08;;;16.00;96.50;;;;;;5046825;28;20135;-70
2023/09/11 02:07:53;;;;;;;105.45;39.95;;;16.00;96.50;;;;;;5045752;28;20123;-70
2023/09/11 02:10:20;;;;;;;106.53;39.22;;;15.90;96.80;;;;;;5062304;28;20048;-70
2023/09/11 02:12:47;;;;;;;111.10;39.30;;;15.90;96.50;;;;;;5065516;28;20055;-70
2023/09/11 02:15:15;;;;;;;113.55;38.83;;;15.90;96.80;;;;;;5045909;28;20116;-70
2023/09/11 02:17:41;;;;;;;118.28;41.15;;;15.90;97.20;;;;;;5043302;28;20109;-71
2023/09/11 02:20:09;;;;;;;114.10;40.25;;;15.90;97.10;;;;;;5064805;28;20056;-70
2023/09/11 02:22:36;;;;;;;109.93;39.83;;;15.90;96.80;;;;;;5063511;28;20135;-70
2023/09/11 02:25:03;;;;;;;107.80;38.38;;;15.90;97.50;;;;;;5062565;28;20048;-70
2023/09/11 02:27:29;;;;;;;110.03;39.88;;;15.80;97.60;;;;;;5044125;28;20135;-70
2023/09/11 02:29:56;;;;;;;112.82;41.53;;;15.80;97.90;;;;;;5042472;28;20598;-70
2023/09/11 02:32:25;;;;;;;119.88;40.90;;;15.80;98.00;;;;;;5062141;28;20048;-70
2023/09/11 02:34:52;;;;;;;108.72;39.40;;;15.90;97.60;;;;;;5061434;28;20715;-70
2023/09/11 02:37:21;;;;;;;114.00;41.15;;;15.90;97.50;;;;;;5057084;28;20156;-70
2023/09/11 02:39:47;;;;;;;121.28;42.20;;;15.90;97.70;;;;;;5060866;28;20173;-70
2023/09/11 02:42:14;;;;;;;113.88;40.97;;;15.90;97.40;;;;;;5045798;28;20131;-70
2023/09/11 02:44:43;;;;;;;115.10;40.05;;;15.90;97.40;;;;;;5061459;28;20126;-70
2023/09/11 02:47:10;;;;;;;120.05;40.50;;;15.90;97.40;;;;;;5064120;28;20141;-70
2023/09/11 02:49:36;;;;;;;115.72;40.28;;;15.90;97.20;;;;;;5065722;28;20156;-70
2023/09/11 02:52:04;;;;;;;102.50;39.47;;;15.90;97.00;;;;;;5041364;28;20064;-70
2023/09/11 02:54:31;;;;;;;105.78;38.35;;;15.90;97.10;;;;;;5061815;28;20055;-70
2023/09/11 02:56:57;;;;;;;113.65;39.72;;;15.90;96.80;;;;;;5045375;28;20122;-70
2023/09/11 02:59:24;;;;;;;126.25;39.45;;;15.90;96.90;;;;;;5039580;28;20048;-75
2023/09/11 03:01:51;;;;;;;120.55;40.72;;;15.80;97.00;;;;;;5066394;28;20516;-75
2023/09/11 03:04:18;;;;;;;119.47;40.45;;;15.90;97.30;;;;;;5066575;28;20045;-75
2023/09/11 03:06:45;;;;;;;123.30;39.85;;;15.90;97.30;;;;;;5046379;28;20162;-75
2023/09/11 03:09:12;;;;;;;110.03;37.15;;;15.80;97.10;;;;;;5064919;28;20056;-75
2023/09/11 03:11:39;;;;;;;111.30;39.90;;;15.80;97.40;;;;;;5049942;28;20560;-76
2023/09/11 03:14:06;;;;;;;106.80;36.90;;;15.80;97.00;;;;;;5063903;28;20049;-76
2023/09/11 03:16:32;;;;;;;119.43;38.67;;;15.70;97.30;;;;;;5064781;28;20052;-75
2023/09/11 03:18:59;;;;;;;107.95;37.05;;;15.70;97.40;;;;;;5063311;28;20244;-74
2023/09/11 03:21:26;;;;;;;130.15;40.78;;;15.70;98.00;;;;;;5063914;28;20053;-75
2023/09/11 03:23:53;;;;;;;132.13;41.20;;;15.70;97.80;;;;;;5064092;28;20143;-75
2023/09/11 03:26:20;;;;;;;124.80;39.30;;;15.60;98.20;;;;;;5062008;28;20106;-75
2023/09/11 03:28:49;;;;;;;130.65;39.47;;;15.60;98.00;;;;;;5044793;28;20669;-74
2023/09/11 03:31:17;;;;;;;124.97;39.35;;;15.60;98.70;;;;;;5063558;28;20055;-75
2023/09/11 03:33:44;;;;;;;130.52;40.60;;;15.70;98.60;;;;;;5067259;28;20043;-75
2023/09/11 03:36:16;;;;;;;126.40;40.67;;;15.70;98.40;;;;;;5048936;28;20041;-75
2023/09/11 03:38:43;;;;;;;132.30;39.72;;;15.60;98.30;;;;;;5047788;28;20639;-75
2023/09/11 03:43:39;;;;;;;130.68;39.10;;;15.60;98.60;;;;;;4999300;28;20049;-75
2023/09/11 03:46:05;;;;;;;163.55;39.47;;;15.50;98.50;;;;;;5007926;28;20054;-75
2023/09/11 03:48:32;;;;;;;134.77;40.33;;;15.50;98.80;;;;;;5005716;28;20053;-74
2023/09/11 03:50:59;;;;;;;126.60;38.83;;;15.40;98.90;;;;;;5008679;28;20042;-75
2023/09/11 03:53:26;;;;;;;120.07;38.92;;;15.40;99.40;;;;;;5006517;28;20056;-75
2023/09/11 03:55:53;;;;;;;121.18;36.20;;;15.50;99.20;;;;;;5004534;28;20048;-76
2023/09/11 03:58:20;;;;;;;118.18;37.15;;;15.50;99.00;;;;;;5004585;28;20057;-76
2023/09/11 04:00:47;;;;;;;204.55;37.70;;;15.50;98.90;;;;;;5004834;28;20140;-75
2023/09/11 04:03:14;;;;;;;316.85;37.92;;;15.50;98.50;;;;;;5007126;28;20064;-75
2023/09/11 04:05:41;;;;;;;137.13;37.88;;;15.50;98.70;;;;;;5008114;28;20053;-75
2023/09/11 04:08:08;;;;;;;123.55;37.13;;;15.40;99.20;;;;;;5007253;28;20141;-75
2023/09/11 04:10:35;;;;;;;131.88;37.67;;;15.30;99.50;;;;;;5011693;28;20038;-75
2023/09/11 04:13:02;;;;;;;172.45;39.35;;;15.30;99.60;;;;;;5041879;22;20057;-88
2023/09/11 04:15:29;;;;;;;148.93;38.50;;;15.40;99.60;;;;;;5028324;28;20049;-88
2023/09/11 04:17:57;;;;;;;153.93;40.97;;;15.30;99.90;;;;;;5029837;28;20045;-90
2023/09/11 04:20:24;;;;;;;153.75;39.35;;;15.30;100.00;;;;;;5031047;28;20136;-89
2023/09/11 04:22:51;;;;;;;130.20;37.65;;;15.20;100.00;;;;;;5035714;28;20049;-89
2023/09/11 04:25:18;;;;;;;134.82;39.80;;;15.20;100.00;;;;;;5050259;28;20034;-89
2023/09/11 04:27:45;;;;;;;140.75;40.58;;;15.30;100.00;;;;;;5051613;28;20048;-89
2023/09/11 04:30:12;;;;;;;155.32;41.22;;;15.40;100.00;;;;;;5044857;28;20110;-89
2023/09/11 04:32:39;;;;;;;148.07;41.20;;;15.40;100.00;;;;;;5032513;28;20199;-90
2023/09/11 04:35:07;;;;;;;148.23;42.15;;;15.40;100.00;;;;;;5030701;28;20052;-90
2023/09/11 04:37:35;;;;;;;147.43;41.92;;;15.40;100.00;;;;;;5029626;28;20083;-90
2023/09/11 04:40:06;;;;;;;153.55;39.88;;;15.50;100.00;;;;;;5034350;28;20041;-89
2023/09/11 04:42:35;;;;;;;171.80;41.40;;;15.50;100.00;;;;;;5029441;28;20052;-87
2023/09/11 04:45:06;;;;;;;157.20;40.70;;;15.50;100.00;;;;;;5026390;28;20482;-89
2023/09/11 04:47:34;;;;;;;163.68;39.75;;;15.50;100.00;;;;;;5026352;28;20130;-91
2023/09/11 04:50:01;;;;;;;164.55;42.80;;;15.50;100.00;;;;;;5028313;28;20770;-90
2023/09/11 04:52:28;;;;;;;167.90;40.08;;;15.50;100.00;;;;;;5031194;28;20474;-89
2023/09/11 04:54:58;;;;;;;149.55;40.53;;;15.50;100.00;;;;;;5029945;28;20045;-88
2023/09/11 04:57:32;;;;;;;249.98;39.65;;;15.50;100.00;;;;;;5032367;28;20092;-90
2023/09/11 04:59:59;;;;;;;141.95;38.33;;;15.40;100.00;;;;;;5032755;28;20469;-90
2023/09/11 05:02:27;;;;;;;132.00;36.80;;;15.30;100.00;;;;;;5030412;28;20049;-89
2023/09/11 05:04:54;;;;;;;195.20;37.60;;;15.30;100.00;;;;;;5031812;28;20049;-88
2023/09/11 05:07:20;;;;;;;154.45;35.65;;;15.30;100.00;;;;;;5053384;28;20045;-89
2023/09/11 05:09:47;;;;;;;281.48;36.97;;;15.30;100.00;;;;;;5053318;28;20156;-89
2023/09/11 05:12:14;;;;;;;135.57;33.58;;;15.20;100.00;;;;;;5030986;28;20056;-90
2023/09/11 05:14:41;;;;;;;190.35;34.33;;;15.20;100.00;;;;;;5045395;28;20049;-89
2023/09/11 05:17:11;;;;;;;153.52;35.03;;;15.20;100.00;;;;;;5035755;28;20044;-90
2023/09/11 05:19:38;;;;;;;204.02;33.72;;;15.20;100.00;;;;;;5036339;28;20075;-90
2023/09/11 05:22:05;;;;;;;153.40;34.08;;;15.20;100.00;;;;;;5029771;28;20516;-91
2023/09/11 05:24:33;;;;;;;117.60;32.30;;;15.20;100.00;;;;;;5030235;28;20077;-90
2023/09/11 05:27:00;;;;;;;113.78;33.05;;;15.20;100.00;;;;;;5028501;28;20492;-90
2023/09/11 05:29:27;;;;;;;103.90;31.83;;;15.20;100.00;;;;;;5028709;28;20128;-91
2023/09/11 05:31:54;;;;;;;163.07;31.70;;;15.30;100.00;;;;;;5032355;28;20083;-92
2023/09/11 05:34:21;;;;;;;113.78;30.55;;;15.30;100.00;;;;;;5029414;28;20075;-91
2023/09/11 05:36:48;;;;;;;123.90;33.45;;;15.20;100.00;;;;;;5050041;28;20065;-91
2023/09/11 05:39:15;;;;;;;96.95;29.55;;;15.30;100.00;;;;;;5033928;28;20083;-91
2023/09/11 05:41:42;;;;;;;133.48;29.63;;;15.20;100.00;;;;;;5032449;28;20052;-91
2023/09/11 05:44:09;;;;;;;265.20;31.48;;;15.20;100.00;;;;;;5028388;28;20139;-91
2023/09/11 05:46:36;;;;;;;112.53;31.30;;;15.20;100.00;;;;;;5034983;28;20086;-91
2023/09/11 05:49:03;;;;;;;104.03;30.95;;;15.20;100.00;;;;;;5040413;28;20133;-91
2023/09/11 05:51:30;;;;;;;96.40;31.02;;;15.30;100.00;;;;;;5031207;28;20140;-91
2023/09/11 05:53:57;;;;;;;115.18;33.45;;;15.30;100.00;;;;;;5053679;28;20087;-91
2023/09/11 05:56:24;;;;;;;161.00;33.20;;;15.40;100.00;;;;;;5034823;28;20128;-91
2023/09/11 05:58:51;;;;;;;136.30;33.30;;;15.40;100.00;;;;;;5035257;28;20099;-91
2023/09/11 06:01:18;;;;;;;115.75;34.83;;;15.40;100.00;;;;;;5023870;28;20046;-91
2023/09/11 06:03:45;;;;;;;117.82;34.10;;;15.50;100.00;;;;;;5033085;28;20044;-91
2023/09/11 06:06:12;;;;;;;184.07;34.88;;;15.60;100.00;;;;;;5034800;28;20063;-90
2023/09/11 06:08:39;;;;;;;128.88;33.85;;;15.60;100.00;;;;;;5037023;28;20045;-91
2023/09/11 06:11:06;;;;;;;235.77;36.72;;;15.60;100.00;;;;;;5031396;28;20056;-91
2023/09/11 06:13:35;;;;;;;117.70;34.50;;;15.60;100.00;;;;;;5033128;28;20112;-90
2023/09/11 06:16:03;;;;;;;112.68;32.38;;;15.70;100.00;;;;;;5031205;28;20606;-91
2023/09/11 06:18:30;;;;;;;107.35;33.00;;;15.80;100.00;;;;;;5052112;28;20481;-90
2023/09/11 06:20:57;;;;;;;98.32;32.67;;;15.80;100.00;;;;;;5031355;28;20057;-91
2023/09/11 06:23:24;;;;;;;109.75;32.72;;;15.90;100.00;;;;;;5030489;28;20045;-91
2023/09/11 06:25:51;;;;;;;124.18;32.97;;;16.00;100.00;;;;;;5034109;28;20718;-91
2023/09/11 06:28:18;;;;;;;155.20;29.95;;;16.00;100.00;;;;;;5033089;28;20512;-91
2023/09/11 06:30:45;;;;;;;161.63;33.22;;;15.90;100.00;;;;;;5026289;28;20053;-91
2023/09/11 06:33:12;;;;;;;105.00;32.15;;;15.90;100.00;;;;;;5033905;28;20061;-91
2023/09/11 06:35:39;;;;;;;171.20;31.55;;;15.90;100.00;;;;;;5034688;28;20119;-91
2023/09/11 06:38:06;;;;;;;101.80;30.88;;;15.90;100.00;;;;;;5033659;28;20077;-91
2023/09/11 06:40:33;;;;;;;105.80;33.85;;;15.90;100.00;;;;;;5034716;28;20053;-90
2023/09/11 06:43:00;;;;;;;119.88;33.03;;;16.00;100.00;;;;;;5036923;28;20190;-91
2023/09/11 06:45:27;;;;;;;102.85;32.50;;;16.10;100.00;;;;;;5040842;28;20478;-91
2023/09/11 06:47:54;;;;;;;116.85;31.67;;;16.20;100.00;;;;;;5044216;28;20146;-91
2023/09/11 06:50:21;;;;;;;87.47;32.00;;;16.20;100.00;;;;;;5047418;28;20048;-91
2023/09/11 06:52:48;;;;;;;64.93;26.85;;;16.30;100.00;;;;;;5035633;28;20060;-90
2023/09/11 06:55:15;;;;;;;238.05;30.20;;;16.30;100.00;;;;;;5052637;28;20061;-91
2023/09/11 06:57:57;;;;;;;65.75;24.98;;;16.30;99.60;;;;;;5032922;28;20063;-91
2023/09/11 07:00:24;;;;;;;179.82;27.95;;;16.40;100.00;;;;;;5030114;28;20099;-91
2023/09/11 07:02:51;;;;;;;151.10;27.77;;;16.40;99.40;;;;;;5037018;28;20056;-91
2023/09/11 07:05:22;;;;;;;90.43;26.67;;;16.40;99.60;;;;;;5032766;28;20497;-91
2023/09/11 07:07:49;;;;;;;67.50;27.23;;;16.40;99.50;;;;;;5050433;28;20153;-91
2023/09/11 07:10:17;;;;;;;77.97;28.50;;;16.50;100.00;;;;;;5039140;28;20045;-91
2023/09/11 07:13:00;;;;;;;68.50;27.55;;;16.60;99.40;;;;;;5034020;28;20099;-91
2023/09/11 07:15:27;;;;;;;76.88;27.90;;;16.70;99.10;;;;;;5036136;28;20049;-91
2023/09/11 07:17:54;;;;;;;65.68;26.98;;;16.80;98.90;;;;;;5029242;28;20053;-92
2023/09/11 07:20:21;;;;;;;100.97;28.10;;;16.80;98.20;;;;;;5033210;28;20046;-91
2023/09/11 07:22:48;;;;;;;70.53;26.88;;;16.70;98.90;;;;;;5038049;28;20139;-91
2023/09/11 07:25:17;;;;;;;76.28;29.17;;;16.70;98.60;;;;;;5036984;28;20064;-91
2023/09/11 07:27:44;;;;;;;79.72;30.48;;;16.80;99.60;;;;;;5034993;28;20049;-92
2023/09/11 07:30:11;;;;;;;75.95;28.40;;;16.90;98.60;;;;;;5054697;28;20047;-93
2023/09/11 07:32:38;;;;;;;78.68;30.23;;;17.00;98.90;;;;;;5038201;28;20068;-93
2023/09/11 07:35:06;;;;;;;76.13;29.48;;;17.20;98.60;;;;;;5046223;28;20623;-92
2023/09/11 07:37:33;;;;;;;67.78;27.88;;;17.40;97.70;;;;;;5042404;28;20057;-92
2023/09/11 07:40:01;;;;;;;60.10;26.45;;;17.60;96.70;;;;;;5037723;28;20095;-92
2023/09/11 07:42:28;;;;;;;66.53;27.05;;;17.60;96.10;;;;;;5037377;28;20065;-91
2023/09/11 07:44:55;;;;;;;89.72;27.77;;;17.70;95.70;;;;;;5033087;28;20049;-92
2023/09/11 07:47:22;;;;;;;54.90;25.23;;;17.70;94.70;;;;;;5032056;28;20099;-89
2023/09/11 07:49:49;;;;;;;56.15;25.73;;;17.80;96.00;;;;;;5033923;28;20041;-90
2023/09/11 07:52:15;;;;;;;54.05;25.80;;;17.90;95.10;;;;;;5054877;28;20469;-89
2023/09/11 07:54:43;;;;;;;55.90;26.67;;;18.00;94.80;;;;;;5037598;28;20057;-90
2023/09/11 07:57:10;;;;;;;55.30;25.38;;;18.20;93.90;;;;;;5033689;28;20556;-91
2023/09/11 07:59:37;;;;;;;61.00;24.98;;;18.20;93.40;;;;;;5037228;28;20056;-92
2023/09/11 08:02:03;;;;;;;54.08;26.50;;;18.30;93.80;;;;;;5038136;28;20053;-90
2023/09/11 08:04:32;;;;;;;51.08;24.55;;;18.40;93.00;;;;;;5040608;28;20080;-90
2023/09/11 08:06:59;;;;;;;48.78;23.88;;;18.50;92.20;;;;;;5030862;28;20083;-90
2023/09/11 08:09:26;;;;;;;56.05;24.80;;;18.50;93.40;;;;;;5033862;28;20409;-90
2023/09/11 08:11:53;;;;;;;47.65;23.00;;;18.50;92.00;;;;;;5037376;28;20509;-89
2023/09/11 08:14:22;;;;;;;53.38;25.10;;;18.50;93.30;;;;;;5053800;28;20041;-90
2023/09/11 08:16:49;;;;;;;61.13;23.83;;;18.60;92.30;;;;;;5035440;28;20744;-90
2023/09/11 08:19:16;;;;;;;47.97;23.35;;;18.80;92.20;;;;;;5030124;28;20053;-90
2023/09/11 08:21:43;;;;;;;41.60;21.73;;;19.10;91.30;;;;;;5039343;28;20139;-90
2023/09/11 08:24:11;;;;;;;42.00;22.42;;;19.20;91.00;;;;;;5036251;28;20511;-89
2023/09/11 08:26:38;;;;;;;37.13;20.60;;;19.40;90.30;;;;;;5034644;28;20048;-90
2023/09/11 08:29:10;;;;;;;35.30;19.52;;;19.70;91.40;;;;;;5026291;28;20049;-90
2023/09/11 08:31:38;;;;;;;41.08;20.42;;;20.30;89.40;;;;;;5033343;28;20049;-90
2023/09/11 08:34:05;;;;;;;36.95;18.80;;;20.80;86.70;;;;;;5033261;28;20065;-90
2023/09/11 08:36:32;;;;;;;30.42;17.65;;;20.80;85.20;;;;;;5038869;28;20103;-90
2023/09/11 08:38:59;;;;;;;28.20;17.17;;;21.40;83.90;;;;;;5035787;28;20057;-90
2023/09/11 08:41:27;;;;;;;27.05;16.25;;;21.40;82.30;;;;;;5052240;28;20043;-90
2023/09/11 08:43:54;;;;;;;24.73;15.88;;;21.80;82.30;;;;;;5041969;28;20056;-89
2023/09/11 08:46:22;;;;;;;24.95;16.15;;;22.50;81.10;;;;;;5038111;28;20072;-90
2023/09/11 08:48:54;;;;;;;21.38;14.68;;;22.70;79.10;;;;;;5037586;28;20051;-90
2023/09/11 08:51:39;;;;;;;25.85;15.15;;;22.80;78.00;;;;;;5031587;28;20053;-91
2023/09/11 08:54:09;;;;;;;22.92;14.63;;;23.10;76.90;;;;;;5025700;28;20045;-87
2023/09/11 08:56:40;;;;;;;18.58;12.88;;;23.40;76.40;;;;;;5034111;28;20060;-86
2023/09/11 08:59:10;;;;;;;22.17;13.57;;;23.70;75.10;;;;;;5046651;28;20127;-86
2023/09/11 09:01:38;;;;;;;20.08;12.68;;;24.30;72.40;;;;;;5035512;28;20555;-86
2023/09/11 09:04:06;;;;;;;20.77;12.73;;;24.80;72.00;;;;;;5030396;28;20087;-86
2023/09/11 09:06:35;;;;;;;18.38;13.40;;;25.00;70.90;;;;;;5040769;28;20049;-86
2023/09/11 09:09:02;;;;;;;19.75;13.98;;;25.50;69.90;;;;;;5048687;28;20041;-86
2023/09/11 09:11:31;;;;;;;18.23;12.35;;;25.70;68.80;;;;;;5053374;28;20048;-86
2023/09/11 09:13:59;;;;;;;16.27;11.13;;;25.90;68.30;;;;;;5049739;28;20056;-87
2023/09/11 09:16:26;;;;;;;16.45;11.75;;;26.40;67.90;;;;;;5053763;28;20064;-86
2023/09/11 09:18:53;;;;;;;16.30;12.38;;;26.80;67.80;;;;;;5031894;28;20229;-86
2023/09/11 09:21:25;;;;;;;15.07;10.63;;;27.10;65.70;;;;;;5031995;28;20040;-86
2023/09/11 09:23:53;;;;;;;18.08;12.65;;;27.50;65.60;;;;;;5028166;28;20127;-86
2023/09/11 09:26:22;;;;;;;18.73;11.55;;;27.30;64.90;;;;;;5031224;28;20049;-86
2023/09/11 09:28:51;;;;;;;28.73;12.27;;;27.70;64.10;;;;;;5037188;28;20123;-86
2023/09/11 09:31:25;;;;;;;17.15;11.98;;;28.20;63.40;;;;;;5044238;28;20115;-86
2023/09/11 09:33:56;;;;;;;14.10;11.13;;;28.90;62.10;;;;;;5046770;28;20075;-87
2023/09/11 09:36:24;;;;;;;17.85;12.27;;;29.30;61.10;;;;;;5028276;28;20571;-87
2023/09/11 09:38:51;;;;;;;21.58;13.05;;;29.90;59.70;;;;;;5035065;28;20061;-86
2023/09/11 09:41:20;;;;;;;21.60;12.63;;;30.50;58.30;;;;;;5031170;28;20052;-87
2023/09/11 09:43:53;;;;;;;17.80;12.65;;;30.60;58.20;;;;;;5021692;28;20077;-87
2023/09/11 09:46:21;;;;;;;34.38;12.30;;;31.10;56.60;;;;;;5048340;28;20049;-87
2023/09/11 09:48:49;;;;;;;14.95;11.45;;;31.10;57.40;;;;;;5028968;28;20045;-91
2023/09/11 09:51:16;;;;;;;13.75;11.18;;;31.50;56.20;;;;;;5032684;28;20056;-90
2023/09/11 09:53:46;;;;;;;12.45;10.80;;;31.20;56.80;;;;;;5038710;28;20057;-90
2023/09/11 09:56:14;;;;;;;17.83;10.48;;;31.80;56.10;;;;;;5044061;28;20087;-90
2023/09/11 09:58:44;;;;;;;17.25;10.85;;;32.40;55.90;;;;;;5036716;28;20099;-91
2023/09/11 10:01:17;;;;;;;15.23;10.25;;;32.90;54.10;;;;;;5023822;28;20140;-91
2023/09/11 10:03:49;;;;;;;15.57;10.32;;;33.10;53.70;;;;;;5037295;28;20549;-90
2023/09/11 10:06:17;;;;;;;14.30;10.32;;;33.10;53.10;;;;;;5030167;28;20045;-91
2023/09/11 10:08:45;;;;;;;21.58;8.65;;;32.40;52.90;;;;;;5050053;28;20337;-90
2023/09/11 10:11:29;;;;;;;20.02;9.07;;;32.40;55.10;;;;;;5023334;28;20128;-91
2023/09/11 10:14:17;;;;;;;13.48;9.40;;;33.10;53.20;;;;;;5035820;28;20045;-91
2023/09/11 10:16:46;;;;;;;22.95;10.13;;;33.10;53.50;;;;;;5032807;28;20068;-90
2023/09/11 10:19:13;;;;;;;15.98;10.48;;;33.60;52.60;;;;;;5049123;28;20060;-91
2023/09/11 10:21:40;;;;;;;19.40;10.77;;;33.40;52.60;;;;;;5048288;28;20551;-90
2023/09/11 10:24:10;;;;;;;12.85;10.18;;;33.10;54.10;;;;;;5048784;28;20111;-90
2023/09/11 10:27:02;;;;;;;12.38;9.70;;;33.50;52.00;;;;;;5030821;28;20049;-91
2023/09/11 10:29:47;;;;;;;14.75;9.63;;;33.20;52.60;;;;;;5029756;28;20068;-91
2023/09/11 10:32:26;;;;;;;15.70;9.00;;;33.40;52.90;;;;;;5039844;28;20045;-90
2023/09/11 10:34:53;;;;;;;19.90;10.32;;;33.60;52.40;;;;;;5035269;28;20284;-91
2023/09/11 10:37:21;;;;;;;19.90;9.65;;;33.30;51.40;;;;;;5051431;28;20049;-91
2023/09/11 10:39:50;;;;;;;16.65;9.20;;;33.40;52.00;;;;;;5023959;28;20432;-90
2023/09/11 10:42:18;;;;;;;10.65;9.18;;;33.40;53.60;;;;;;5050333;28;20064;-91
2023/09/11 10:44:45;;;;;;;16.98;10.20;;;32.00;53.60;;;;;;5032131;28;20095;-91
2023/09/11 10:47:12;;;;;;;11.63;8.75;;;31.90;55.30;;;;;;5046983;28;20045;-91
2023/09/11 10:49:41;;;;;;;19.65;10.75;;;32.30;53.90;;;;;;5045385;28;20136;-91
2023/09/11 10:52:08;;;;;;;13.35;8.52;;;32.10;54.40;;;;;;5032827;28;20061;-91
2023/09/11 10:54:36;;;;;;;15.18;9.38;;;31.70;55.00;;;;;;5050406;28;20870;-89
2023/09/11 10:57:04;;;;;;;17.13;8.57;;;32.10;53.80;;;;;;5032241;28;20407;-90
2023/09/11 10:59:32;;;;;;;16.75;9.63;;;32.30;55.30;;;;;;5051916;28;20166;-91
2023/09/11 11:01:59;;;;;;;11.23;9.20;;;32.80;52.90;;;;;;5035563;28;20060;-90
2023/09/11 11:04:30;;;;;;;12.30;8.95;;;32.80;52.50;;;;;;5033696;28;20052;-91
2023/09/11 11:06:59;;;;;;;11.57;9.10;;;32.90;52.90;;;;;;5029846;28;20046;-91
2023/09/11 11:09:40;;;;;;;12.00;8.20;;;32.90;52.00;;;;;;5032729;28;20568;-90
2023/09/11 11:12:13;;;;;;;11.55;8.32;;;33.10;52.60;;;;;;5029688;28;20517;-91
2023/09/11 11:14:40;;;;;;;12.05;7.97;;;33.70;51.70;;;;;;5040472;28;20382;-91
2023/09/11 11:17:10;;;;;;;13.00;7.57;;;34.10;52.10;;;;;;5022600;28;20059;-91
2023/09/11 11:19:51;;;;;;;12.52;7.57;;;34.70;49.40;;;;;;5028378;28;20081;-91
2023/09/11 11:22:39;;;;;;;11.70;7.97;;;34.80;48.00;;;;;;5029860;28;20485;-91
2023/09/11 11:25:10;;;;;;;9.35;7.55;;;33.60;50.20;;;;;;5023848;28;20045;-90
2023/09/11 11:27:41;;;;;;;16.85;8.05;;;34.10;50.40;;;;;;5046857;28;20045;-91
2023/09/11 11:30:09;;;;;;;16.45;7.82;;;34.60;48.60;;;;;;5038062;28;20511;-91
2023/09/11 11:32:40;;;;;;;11.85;7.80;;;34.90;48.90;;;;;;5035626;28;20463;-91
2023/09/11 11:35:10;;;;;;;26.20;8.07;;;35.00;48.20;;;;;;5056575;28;20397;-91
2023/09/11 11:37:45;;;;;;;15.40;6.55;;;35.60;47.60;;;;;;5031077;28;20136;-91
2023/09/11 11:40:13;;;;;;;15.55;7.38;;;35.80;45.30;;;;;;5047678;28;20029;-90
2023/09/11 11:42:41;;;;;;;7.40;6.60;;;36.00;46.70;;;;;;5058547;28;20037;-91
2023/09/11 11:45:08;;;;;;;9.95;6.07;;;36.40;45.60;;;;;;5028854;28;20436;-91
2023/09/11 11:47:36;;;;;;;8.13;6.18;;;36.70;44.20;;;;;;5028906;28;20044;-90
2023/09/11 11:50:08;;;;;;;15.07;6.30;;;37.30;44.90;;;;;;5049702;28;20449;-91
2023/09/11 11:52:35;;;;;;;12.05;6.10;;;37.70;44.60;;;;;;5024510;28;20057;-89
2023/09/11 11:55:20;;;;;;;14.85;5.47;;;36.70;43.60;;;;;;5034679;28;20511;-91
2023/09/11 11:57:52;;;;;;;9.73;5.70;;;37.60;42.60;;;;;;5052961;28;20053;-91
2023/09/11 12:00:20;;;;;;;12.75;5.50;;;38.10;41.90;;;;;;5031325;28;20128;-91
2023/09/11 12:02:47;;;;;;;7.30;5.32;;;37.90;41.70;;;;;;5030567;28;20119;-92
2023/09/11 12:05:15;;;;;;;12.15;5.45;;;38.30;41.50;;;;;;5028166;28;20045;-90
2023/09/11 12:07:43;;;;;;;12.13;5.53;;;38.60;40.40;;;;;;5035335;28;20130;-91
2023/09/11 12:10:10;;;;;;;9.35;5.18;;;38.50;41.90;;;;;;5031374;28;20049;-91
2023/09/11 12:12:41;;;;;;;13.13;5.60;;;38.20;42.30;;;;;;5032850;28;20136;-91
2023/09/11 12:15:10;;;;;;;13.50;6.03;;;38.60;41.60;;;;;;5036898;28;20118;-91
2023/09/11 12:17:53;;;;;;;18.92;5.68;;;39.40;40.30;;;;;;5032295;28;20065;-91
2023/09/11 12:20:24;;;;;;;10.70;5.40;;;40.10;39.30;;;;;;5036800;28;20045;-91
2023/09/11 12:22:51;;;;;;;12.13;5.70;;;40.30;40.10;;;;;;5052344;28;20106;-92
2023/09/11 12:25:18;;;;;;;9.63;5.40;;;40.50;38.80;;;;;;5034930;28;20128;-91
2023/09/11 12:27:46;;;;;;;17.25;6.07;;;40.70;38.60;;;;;;5033229;28;20825;-91
2023/09/11 12:30:14;;;;;;;16.98;5.70;;;40.50;38.40;;;;;;5035041;28;20560;-91
2023/09/11 12:32:41;;;;;;;11.27;5.85;;;40.40;39.10;;;;;;5035735;28;20061;-91